sensor_id;sensor_type;location;lat;lon;timestamp;P1;durP1;ratioP1;P2;durP2;ratioP2
5682;SDS011;2864;49.220;8.654;2022-07-26T00:00:23;3.70;;;1.80;;
5682;SDS011;2864;49.220;8.654;2022-07-26T00:02:49;1.73;;;1.50;;
5682;SDS011;2864;49.220;8.654;2022-07-26T00:05:15;3.87;;;1.70;;
5682;SDS011;2864;49.220;8.654;2022-07-26T00:07:42;1.70;;;1.60;;
5682;SDS011;2864;49.220;8.654;2022-07-26T00:10:08;6.23;;;1.90;;
5682;SDS011;2864;49.220;8.654;2022-07-26T00:12:34;8.87;;;1.57;;
5682;SDS011;2864;49.220;8.654;2022-07-26T00:15:00;2.50;;;1.80;;
5682;SDS011;2864;49.220;8.654;2022-07-26T00:17:26;3.43;;;1.60;;
5682;SDS011;2864;49.220;8.654;2022-07-26T00:19:52;3.80;;;1.73;;
5682;SDS011;2864;49.220;8.654;2022-07-26T00:22:18;2.80;;;1.47;;
5682;SDS011;2864;49.220;8.654;2022-07-26T00:24:59;2.83;;;1.90;;
5682;SDS011;2864;49.220;8.654;2022-07-26T00:27:25;6.00;;;1.70;;
5682;SDS011;2864;49.220;8.654;2022-07-26T00:29:51;2.10;;;1.70;;
5682;SDS011;2864;49.220;8.654;2022-07-26T00:32:17;3.63;;;1.53;;
5682;SDS011;2864;49.220;8.654;2022-07-26T00:34:42;4.47;;;1.90;;
5682;SDS011;2864;49.220;8.654;2022-07-26T00:37:08;6.30;;;1.80;;
5682;SDS011;2864;49.220;8.654;2022-07-26T00:39:34;2.47;;;1.67;;
5682;SDS011;2864;49.220;8.654;2022-07-26T00:42:00;2.77;;;1.70;;
5682;SDS011;2864;49.220;8.654;2022-07-26T00:44:35;4.13;;;1.80;;
5682;SDS011;2864;49.220;8.654;2022-07-26T00:47:04;2.17;;;1.60;;
5682;SDS011;2864;49.220;8.654;2022-07-26T00:49:30;3.23;;;1.83;;
5682;SDS011;2864;49.220;8.654;2022-07-26T00:51:56;3.30;;;1.83;;
5682;SDS011;2864;49.220;8.654;2022-07-26T00:54:21;4.90;;;1.80;;
5682;SDS011;2864;49.220;8.654;2022-07-26T00:56:47;2.93;;;1.57;;
5682;SDS011;2864;49.220;8.654;2022-07-26T00:59:13;3.50;;;1.70;;
5682;SDS011;2864;49.220;8.654;2022-07-26T01:01:39;2.00;;;1.70;;
5682;SDS011;2864;49.220;8.654;2022-07-26T01:04:05;3.93;;;1.97;;
5682;SDS011;2864;49.220;8.654;2022-07-26T01:06:31;2.80;;;1.80;;
5682;SDS011;2864;49.220;8.654;2022-07-26T01:08:56;4.77;;;1.93;;
5682;SDS011;2864;49.220;8.654;2022-07-26T01:11:22;5.53;;;1.70;;
5682;SDS011;2864;49.220;8.654;2022-07-26T01:13:48;5.23;;;2.23;;
5682;SDS011;2864;49.220;8.654;2022-07-26T01:16:14;2.83;;;1.70;;
5682;SDS011;2864;49.220;8.654;2022-07-26T01:18:40;2.80;;;2.10;;
5682;SDS011;2864;49.220;8.654;2022-07-26T01:21:07;4.87;;;1.60;;
5682;SDS011;2864;49.220;8.654;2022-07-26T01:23:34;4.93;;;1.97;;
5682;SDS011;2864;49.220;8.654;2022-07-26T01:26:00;3.27;;;1.87;;
5682;SDS011;2864;49.220;8.654;2022-07-26T01:28:26;3.03;;;1.87;;
5682;SDS011;2864;49.220;8.654;2022-07-26T01:30:52;5.27;;;2.10;;
5682;SDS011;2864;49.220;8.654;2022-07-26T01:33:18;6.10;;;2.07;;
5682;SDS011;2864;49.220;8.654;2022-07-26T01:35:44;2.47;;;2.03;;
5682;SDS011;2864;49.220;8.654;2022-07-26T01:38:10;5.57;;;2.00;;
5682;SDS011;2864;49.220;8.654;2022-07-26T01:40:36;3.20;;;1.90;;
5682;SDS011;2864;49.220;8.654;2022-07-26T01:43:02;3.20;;;1.97;;
5682;SDS011;2864;49.220;8.654;2022-07-26T01:45:28;2.17;;;1.93;;
5682;SDS011;2864;49.220;8.654;2022-07-26T01:47:55;5.07;;;1.80;;
5682;SDS011;2864;49.220;8.654;2022-07-26T01:50:21;2.07;;;1.80;;
5682;SDS011;2864;49.220;8.654;2022-07-26T01:52:47;2.37;;;1.83;;
5682;SDS011;2864;49.220;8.654;2022-07-26T01:55:13;3.60;;;2.00;;
5682;SDS011;2864;49.220;8.654;2022-07-26T01:57:39;4.37;;;1.60;;
5682;SDS011;2864;49.220;8.654;2022-07-26T02:00:06;4.20;;;1.80;;
5682;SDS011;2864;49.220;8.654;2022-07-26T02:02:32;2.90;;;1.90;;
5682;SDS011;2864;49.220;8.654;2022-07-26T02:04:59;4.03;;;2.00;;
5682;SDS011;2864;49.220;8.654;2022-07-26T02:07:29;3.13;;;2.07;;
5682;SDS011;2864;49.220;8.654;2022-07-26T02:09:57;3.40;;;2.00;;
5682;SDS011;2864;49.220;8.654;2022-07-26T02:12:23;2.30;;;1.70;;
5682;SDS011;2864;49.220;8.654;2022-07-26T02:14:50;3.87;;;2.03;;
5682;SDS011;2864;49.220;8.654;2022-07-26T02:17:16;3.13;;;1.70;;
5682;SDS011;2864;49.220;8.654;2022-07-26T02:19:44;2.50;;;2.10;;
5682;SDS011;2864;49.220;8.654;2022-07-26T02:22:10;3.77;;;2.00;;
5682;SDS011;2864;49.220;8.654;2022-07-26T02:24:36;2.67;;;1.90;;
5682;SDS011;2864;49.220;8.654;2022-07-26T02:27:02;1.93;;;1.73;;
5682;SDS011;2864;49.220;8.654;2022-07-26T02:29:28;2.47;;;1.83;;
5682;SDS011;2864;49.220;8.654;2022-07-26T02:31:54;5.57;;;2.00;;
5682;SDS011;2864;49.220;8.654;2022-07-26T02:34:20;2.13;;;1.70;;
5682;SDS011;2864;49.220;8.654;2022-07-26T02:36:46;2.90;;;2.00;;
5682;SDS011;2864;49.220;8.654;2022-07-26T02:39:12;2.67;;;2.00;;
5682;SDS011;2864;49.220;8.654;2022-07-26T02:41:38;3.23;;;1.83;;
5682;SDS011;2864;49.220;8.654;2022-07-26T02:44:04;2.80;;;2.07;;
5682;SDS011;2864;49.220;8.654;2022-07-26T02:46:30;2.53;;;2.07;;
5682;SDS011;2864;49.220;8.654;2022-07-26T02:48:56;4.00;;;2.03;;
5682;SDS011;2864;49.220;8.654;2022-07-26T02:51:24;2.53;;;2.30;;
5682;SDS011;2864;49.220;8.654;2022-07-26T02:53:50;6.73;;;2.10;;
5682;SDS011;2864;49.220;8.654;2022-07-26T02:56:17;2.87;;;1.80;;
5682;SDS011;2864;49.220;8.654;2022-07-26T02:58:43;5.13;;;1.80;;
5682;SDS011;2864;49.220;8.654;2022-07-26T03:01:09;4.00;;;1.90;;
5682;SDS011;2864;49.220;8.654;2022-07-26T03:03:35;3.07;;;2.00;;
5682;SDS011;2864;49.220;8.654;2022-07-26T03:06:01;3.60;;;1.90;;
5682;SDS011;2864;49.220;8.654;2022-07-26T03:08:27;3.20;;;2.00;;
5682;SDS011;2864;49.220;8.654;2022-07-26T03:10:53;3.83;;;2.00;;
5682;SDS011;2864;49.220;8.654;2022-07-26T03:13:18;2.60;;;1.90;;
5682;SDS011;2864;49.220;8.654;2022-07-26T03:15:44;2.70;;;1.60;;
5682;SDS011;2864;49.220;8.654;2022-07-26T03:18:10;2.53;;;1.80;;
5682;SDS011;2864;49.220;8.654;2022-07-26T03:20:38;3.70;;;2.07;;
5682;SDS011;2864;49.220;8.654;2022-07-26T03:23:04;3.90;;;1.90;;
5682;SDS011;2864;49.220;8.654;2022-07-26T03:25:29;4.27;;;1.90;;
5682;SDS011;2864;49.220;8.654;2022-07-26T03:27:55;3.47;;;1.90;;
5682;SDS011;2864;49.220;8.654;2022-07-26T03:30:22;3.53;;;2.07;;
5682;SDS011;2864;49.220;8.654;2022-07-26T03:32:48;1.90;;;1.57;;
5682;SDS011;2864;49.220;8.654;2022-07-26T03:35:14;3.23;;;2.10;;
5682;SDS011;2864;49.220;8.654;2022-07-26T03:37:40;2.53;;;1.80;;
5682;SDS011;2864;49.220;8.654;2022-07-26T03:40:06;3.40;;;1.90;;
5682;SDS011;2864;49.220;8.654;2022-07-26T03:42:33;2.30;;;2.10;;
5682;SDS011;2864;49.220;8.654;2022-07-26T03:44:59;6.23;;;2.10;;
5682;SDS011;2864;49.220;8.654;2022-07-26T03:47:24;2.73;;;1.80;;
5682;SDS011;2864;49.220;8.654;2022-07-26T03:49:50;3.27;;;1.90;;
5682;SDS011;2864;49.220;8.654;2022-07-26T03:52:16;4.87;;;2.10;;
5682;SDS011;2864;49.220;8.654;2022-07-26T03:54:42;4.10;;;2.40;;
5682;SDS011;2864;49.220;8.654;2022-07-26T03:57:08;2.27;;;2.00;;
5682;SDS011;2864;49.220;8.654;2022-07-26T03:59:34;2.40;;;2.10;;
5682;SDS011;2864;49.220;8.654;2022-07-26T04:02:00;4.83;;;1.90;;
5682;SDS011;2864;49.220;8.654;2022-07-26T04:04:26;3.93;;;1.87;;
5682;SDS011;2864;49.220;8.654;2022-07-26T04:06:51;2.10;;;1.90;;
5682;SDS011;2864;49.220;8.654;2022-07-26T04:09:17;2.37;;;1.97;;
5682;SDS011;2864;49.220;8.654;2022-07-26T04:11:43;4.37;;;1.93;;
5682;SDS011;2864;49.220;8.654;2022-07-26T04:14:09;2.57;;;1.93;;
5682;SDS011;2864;49.220;8.654;2022-07-26T04:16:35;3.17;;;2.00;;
5682;SDS011;2864;49.220;8.654;2022-07-26T04:19:01;5.03;;;1.90;;
5682;SDS011;2864;49.220;8.654;2022-07-26T04:21:27;2.63;;;1.80;;
5682;SDS011;2864;49.220;8.654;2022-07-26T04:23:53;2.80;;;1.80;;
5682;SDS011;2864;49.220;8.654;2022-07-26T04:26:19;3.10;;;1.80;;
5682;SDS011;2864;49.220;8.654;2022-07-26T04:28:45;2.70;;;2.17;;
5682;SDS011;2864;49.220;8.654;2022-07-26T04:31:11;7.70;;;4.53;;
5682;SDS011;2864;49.220;8.654;2022-07-26T04:33:37;3.70;;;2.00;;
5682;SDS011;2864;49.220;8.654;2022-07-26T04:36:03;3.87;;;2.20;;
5682;SDS011;2864;49.220;8.654;2022-07-26T04:38:29;2.33;;;1.90;;
5682;SDS011;2864;49.220;8.654;2022-07-26T04:40:56;2.80;;;2.00;;
5682;SDS011;2864;49.220;8.654;2022-07-26T04:43:22;2.93;;;1.90;;
5682;SDS011;2864;49.220;8.654;2022-07-26T04:45:48;2.17;;;1.67;;
5682;SDS011;2864;49.220;8.654;2022-07-26T04:48:14;4.73;;;2.03;;
5682;SDS011;2864;49.220;8.654;2022-07-26T04:50:40;3.30;;;1.90;;
5682;SDS011;2864;49.220;8.654;2022-07-26T04:53:06;1.87;;;1.77;;
5682;SDS011;2864;49.220;8.654;2022-07-26T04:55:34;3.57;;;2.17;;
5682;SDS011;2864;49.220;8.654;2022-07-26T04:58:00;3.83;;;2.13;;
5682;SDS011;2864;49.220;8.654;2022-07-26T05:00:26;2.07;;;1.97;;
5682;SDS011;2864;49.220;8.654;2022-07-26T05:02:56;4.40;;;2.00;;
5682;SDS011;2864;49.220;8.654;2022-07-26T05:05:23;6.73;;;1.90;;
5682;SDS011;2864;49.220;8.654;2022-07-26T05:07:51;3.83;;;2.00;;
5682;SDS011;2864;49.220;8.654;2022-07-26T05:10:17;3.77;;;2.20;;
5682;SDS011;2864;49.220;8.654;2022-07-26T05:12:44;4.17;;;1.97;;
5682;SDS011;2864;49.220;8.654;2022-07-26T05:15:11;7.40;;;2.20;;
5682;SDS011;2864;49.220;8.654;2022-07-26T05:17:37;3.20;;;2.00;;
5682;SDS011;2864;49.220;8.654;2022-07-26T05:20:04;5.93;;;2.13;;
5682;SDS011;2864;49.220;8.654;2022-07-26T05:22:31;3.07;;;2.03;;
5682;SDS011;2864;49.220;8.654;2022-07-26T05:24:56;5.87;;;2.13;;
5682;SDS011;2864;49.220;8.654;2022-07-26T05:27:22;2.90;;;1.97;;
5682;SDS011;2864;49.220;8.654;2022-07-26T05:29:48;3.73;;;1.90;;
5682;SDS011;2864;49.220;8.654;2022-07-26T05:32:14;4.20;;;1.90;;
5682;SDS011;2864;49.220;8.654;2022-07-26T05:34:40;3.63;;;2.00;;
5682;SDS011;2864;49.220;8.654;2022-07-26T05:37:06;6.00;;;2.20;;
5682;SDS011;2864;49.220;8.654;2022-07-26T05:39:32;5.30;;;2.00;;
5682;SDS011;2864;49.220;8.654;2022-07-26T05:41:58;5.33;;;2.17;;
5682;SDS011;2864;49.220;8.654;2022-07-26T05:44:24;3.37;;;2.03;;
5682;SDS011;2864;49.220;8.654;2022-07-26T05:46:50;5.63;;;2.00;;
5682;SDS011;2864;49.220;8.654;2022-07-26T05:49:15;4.17;;;2.00;;
5682;SDS011;2864;49.220;8.654;2022-07-26T05:51:41;5.40;;;2.13;;
5682;SDS011;2864;49.220;8.654;2022-07-26T05:54:07;4.43;;;2.20;;
5682;SDS011;2864;49.220;8.654;2022-07-26T05:56:33;3.93;;;1.90;;
5682;SDS011;2864;49.220;8.654;2022-07-26T05:59:00;2.93;;;1.83;;
5682;SDS011;2864;49.220;8.654;2022-07-26T06:01:26;4.83;;;2.30;;
5682;SDS011;2864;49.220;8.654;2022-07-26T06:03:56;3.37;;;2.00;;
5682;SDS011;2864;49.220;8.654;2022-07-26T06:06:24;3.60;;;2.10;;
5682;SDS011;2864;49.220;8.654;2022-07-26T06:08:50;8.00;;;2.47;;
5682;SDS011;2864;49.220;8.654;2022-07-26T06:11:16;3.33;;;1.63;;
5682;SDS011;2864;49.220;8.654;2022-07-26T06:13:42;3.33;;;1.73;;
5682;SDS011;2864;49.220;8.654;2022-07-26T06:16:08;4.33;;;1.70;;
5682;SDS011;2864;49.220;8.654;2022-07-26T06:18:34;4.87;;;2.10;;
5682;SDS011;2864;49.220;8.654;2022-07-26T06:21:00;3.57;;;2.23;;
5682;SDS011;2864;49.220;8.654;2022-07-26T06:23:26;6.13;;;1.90;;
5682;SDS011;2864;49.220;8.654;2022-07-26T06:25:51;4.83;;;1.80;;
5682;SDS011;2864;49.220;8.654;2022-07-26T06:28:17;6.20;;;1.97;;
5682;SDS011;2864;49.220;8.654;2022-07-26T06:30:43;3.47;;;1.93;;
5682;SDS011;2864;49.220;8.654;2022-07-26T06:33:10;5.00;;;1.97;;
5682;SDS011;2864;49.220;8.654;2022-07-26T06:35:36;3.33;;;1.80;;
5682;SDS011;2864;49.220;8.654;2022-07-26T06:38:03;3.47;;;2.00;;
5682;SDS011;2864;49.220;8.654;2022-07-26T06:40:30;4.83;;;1.60;;
5682;SDS011;2864;49.220;8.654;2022-07-26T06:42:57;4.17;;;2.07;;
5682;SDS011;2864;49.220;8.654;2022-07-26T06:45:26;3.00;;;1.77;;
5682;SDS011;2864;49.220;8.654;2022-07-26T06:47:52;6.00;;;2.27;;
5682;SDS011;2864;49.220;8.654;2022-07-26T06:50:18;4.23;;;2.00;;
5682;SDS011;2864;49.220;8.654;2022-07-26T06:52:44;6.77;;;2.20;;
5682;SDS011;2864;49.220;8.654;2022-07-26T06:55:10;4.73;;;2.00;;
5682;SDS011;2864;49.220;8.654;2022-07-26T06:57:37;7.33;;;2.43;;
5682;SDS011;2864;49.220;8.654;2022-07-26T07:00:03;8.30;;;2.10;;
5682;SDS011;2864;49.220;8.654;2022-07-26T07:02:29;3.73;;;1.70;;
5682;SDS011;2864;49.220;8.654;2022-07-26T07:04:55;4.97;;;2.10;;
5682;SDS011;2864;49.220;8.654;2022-07-26T07:07:21;4.17;;;1.77;;
5682;SDS011;2864;49.220;8.654;2022-07-26T07:09:47;6.40;;;2.10;;
5682;SDS011;2864;49.220;8.654;2022-07-26T07:12:13;6.50;;;2.33;;
5682;SDS011;2864;49.220;8.654;2022-07-26T07:14:39;4.67;;;2.07;;
5682;SDS011;2864;49.220;8.654;2022-07-26T07:17:05;4.33;;;2.10;;
5682;SDS011;2864;49.220;8.654;2022-07-26T07:19:33;3.80;;;1.93;;
5682;SDS011;2864;49.220;8.654;2022-07-26T07:21:59;6.70;;;2.20;;
5682;SDS011;2864;49.220;8.654;2022-07-26T07:24:25;6.87;;;2.10;;
5682;SDS011;2864;49.220;8.654;2022-07-26T07:26:51;7.63;;;2.40;;
5682;SDS011;2864;49.220;8.654;2022-07-26T07:29:17;6.63;;;2.17;;
5682;SDS011;2864;49.220;8.654;2022-07-26T07:31:44;8.73;;;2.20;;
5682;SDS011;2864;49.220;8.654;2022-07-26T07:34:14;3.07;;;2.20;;
5682;SDS011;2864;49.220;8.654;2022-07-26T07:36:40;6.37;;;2.30;;
5682;SDS011;2864;49.220;8.654;2022-07-26T07:39:06;4.60;;;2.60;;
5682;SDS011;2864;49.220;8.654;2022-07-26T07:41:32;6.23;;;2.20;;
5682;SDS011;2864;49.220;8.654;2022-07-26T07:44:00;4.27;;;1.83;;
5682;SDS011;2864;49.220;8.654;2022-07-26T07:46:26;3.97;;;1.97;;
5682;SDS011;2864;49.220;8.654;2022-07-26T07:48:52;3.03;;;1.80;;
5682;SDS011;2864;49.220;8.654;2022-07-26T07:51:18;2.73;;;1.70;;
5682;SDS011;2864;49.220;8.654;2022-07-26T07:53:43;3.17;;;1.60;;
5682;SDS011;2864;49.220;8.654;2022-07-26T07:56:10;5.20;;;1.80;;
5682;SDS011;2864;49.220;8.654;2022-07-26T07:58:36;5.80;;;1.87;;
5682;SDS011;2864;49.220;8.654;2022-07-26T08:01:02;3.03;;;1.90;;
5682;SDS011;2864;49.220;8.654;2022-07-26T08:03:27;3.40;;;1.90;;
5682;SDS011;2864;49.220;8.654;2022-07-26T08:05:53;3.53;;;1.73;;
5682;SDS011;2864;49.220;8.654;2022-07-26T08:08:19;3.93;;;2.00;;
5682;SDS011;2864;49.220;8.654;2022-07-26T08:10:45;4.23;;;1.80;;
5682;SDS011;2864;49.220;8.654;2022-07-26T08:13:11;3.73;;;1.97;;
5682;SDS011;2864;49.220;8.654;2022-07-26T08:15:37;3.60;;;1.80;;
5682;SDS011;2864;49.220;8.654;2022-07-26T08:18:03;5.93;;;1.70;;
5682;SDS011;2864;49.220;8.654;2022-07-26T08:20:29;2.60;;;1.70;;
5682;SDS011;2864;49.220;8.654;2022-07-26T08:22:55;10.00;;;1.87;;
5682;SDS011;2864;49.220;8.654;2022-07-26T08:25:21;3.30;;;1.77;;
5682;SDS011;2864;49.220;8.654;2022-07-26T08:27:47;7.03;;;1.90;;
5682;SDS011;2864;49.220;8.654;2022-07-26T08:30:13;6.47;;;1.53;;
5682;SDS011;2864;49.220;8.654;2022-07-26T08:32:38;2.17;;;1.60;;
5682;SDS011;2864;49.220;8.654;2022-07-26T08:38:27;2.17;;;1.60;;
5682;SDS011;2864;49.220;8.654;2022-07-26T08:40:52;6.27;;;1.90;;
5682;SDS011;2864;49.220;8.654;2022-07-26T08:43:18;2.67;;;1.80;;
5682;SDS011;2864;49.220;8.654;2022-07-26T08:45:44;2.43;;;1.50;;
5682;SDS011;2864;49.220;8.654;2022-07-26T08:48:11;2.03;;;1.53;;
5682;SDS011;2864;49.220;8.654;2022-07-26T08:50:37;2.80;;;1.30;;
5682;SDS011;2864;49.220;8.654;2022-07-26T08:53:04;6.93;;;1.70;;
5682;SDS011;2864;49.220;8.654;2022-07-26T08:55:33;3.40;;;1.67;;
5682;SDS011;2864;49.220;8.654;2022-07-26T08:58:00;4.27;;;1.50;;
5682;SDS011;2864;49.220;8.654;2022-07-26T09:00:28;2.57;;;1.40;;
5682;SDS011;2864;49.220;8.654;2022-07-26T09:02:55;2.53;;;1.53;;
5682;SDS011;2864;49.220;8.654;2022-07-26T09:05:25;2.27;;;1.50;;
5682;SDS011;2864;49.220;8.654;2022-07-26T09:07:52;2.87;;;1.70;;
5682;SDS011;2864;49.220;8.654;2022-07-26T09:10:18;4.63;;;1.50;;
5682;SDS011;2864;49.220;8.654;2022-07-26T09:12:44;2.63;;;1.30;;
5682;SDS011;2864;49.220;8.654;2022-07-26T09:15:17;3.00;;;1.50;;
5682;SDS011;2864;49.220;8.654;2022-07-26T09:17:46;2.60;;;1.60;;
5682;SDS011;2864;49.220;8.654;2022-07-26T09:20:18;1.80;;;1.50;;
5682;SDS011;2864;49.220;8.654;2022-07-26T09:23:02;3.93;;;1.50;;
5682;SDS011;2864;49.220;8.654;2022-07-26T09:25:33;3.20;;;1.40;;
5682;SDS011;2864;49.220;8.654;2022-07-26T09:28:00;4.03;;;1.50;;
5682;SDS011;2864;49.220;8.654;2022-07-26T09:30:27;4.63;;;1.60;;
5682;SDS011;2864;49.220;8.654;2022-07-26T09:32:55;2.50;;;1.47;;
5682;SDS011;2864;49.220;8.654;2022-07-26T09:35:22;4.63;;;1.70;;
5682;SDS011;2864;49.220;8.654;2022-07-26T09:37:48;2.67;;;1.80;;
5682;SDS011;2864;49.220;8.654;2022-07-26T09:40:15;3.43;;;1.90;;
5682;SDS011;2864;49.220;8.654;2022-07-26T09:45:21;4.43;;;1.40;;
5682;SDS011;2864;49.220;8.654;2022-07-26T09:47:47;2.07;;;1.50;;
5682;SDS011;2864;49.220;8.654;2022-07-26T09:50:17;4.23;;;1.70;;
5682;SDS011;2864;49.220;8.654;2022-07-26T09:58:27;2.07;;;1.30;;
5682;SDS011;2864;49.220;8.654;2022-07-26T10:00:53;2.13;;;1.10;;
5682;SDS011;2864;49.220;8.654;2022-07-26T10:03:19;2.93;;;1.50;;
5682;SDS011;2864;49.220;8.654;2022-07-26T10:05:45;3.20;;;1.37;;
5682;SDS011;2864;49.220;8.654;2022-07-26T10:08:11;1.40;;;1.27;;
5682;SDS011;2864;49.220;8.654;2022-07-26T10:10:45;3.17;;;1.40;;
5682;SDS011;2864;49.220;8.654;2022-07-26T10:13:24;2.13;;;1.50;;
5682;SDS011;2864;49.220;8.654;2022-07-26T10:15:51;2.60;;;1.20;;
5682;SDS011;2864;49.220;8.654;2022-07-26T10:23:43;2.63;;;1.40;;
5682;SDS011;2864;49.220;8.654;2022-07-26T10:34:35;4.43;;;1.40;;
5682;SDS011;2864;49.220;8.654;2022-07-26T10:37:04;1.97;;;1.30;;
5682;SDS011;2864;49.220;8.654;2022-07-26T10:39:32;1.63;;;1.30;;
5682;SDS011;2864;49.220;8.654;2022-07-26T10:42:02;3.70;;;1.40;;
5682;SDS011;2864;49.220;8.654;2022-07-26T10:44:31;3.07;;;1.40;;
5682;SDS011;2864;49.220;8.654;2022-07-26T10:52:25;1.73;;;1.43;;
5682;SDS011;2864;49.220;8.654;2022-07-26T10:57:24;4.47;;;1.50;;
5682;SDS011;2864;49.220;8.654;2022-07-26T10:59:57;2.13;;;1.40;;
5682;SDS011;2864;49.220;8.654;2022-07-26T11:02:25;3.20;;;1.40;;
5682;SDS011;2864;49.220;8.654;2022-07-26T11:05:13;2.17;;;1.50;;
5682;SDS011;2864;49.220;8.654;2022-07-26T11:10:23;3.27;;;1.30;;
5682;SDS011;2864;49.220;8.654;2022-07-26T11:12:59;2.83;;;1.40;;
5682;SDS011;2864;49.220;8.654;2022-07-26T11:15:26;3.72;;;1.60;;
5682;SDS011;2864;49.220;8.654;2022-07-26T11:17:51;4.82;;;1.38;;
5682;SDS011;2864;49.220;8.654;2022-07-26T11:20:40;1.92;;;1.27;;
5682;SDS011;2864;49.220;8.654;2022-07-26T11:23:20;1.92;;;1.20;;
5682;SDS011;2864;49.220;8.654;2022-07-26T11:34:00;2.50;;;1.50;;
5682;SDS011;2864;49.220;8.654;2022-07-26T11:39:08;3.43;;;1.40;;
5682;SDS011;2864;49.220;8.654;2022-07-26T11:41:39;2.85;;;1.45;;
5682;SDS011;2864;49.220;8.654;2022-07-26T11:44:06;3.23;;;1.40;;
5682;SDS011;2864;49.220;8.654;2022-07-26T11:46:38;2.97;;;1.50;;
5682;SDS011;2864;49.220;8.654;2022-07-26T11:49:12;2.35;;;1.58;;
5682;SDS011;2864;49.220;8.654;2022-07-26T11:51:48;4.38;;;1.50;;
5682;SDS011;2864;49.220;8.654;2022-07-26T11:54:15;3.20;;;1.30;;
5682;SDS011;2864;49.220;8.654;2022-07-26T11:56:48;3.03;;;1.60;;
5682;SDS011;2864;49.220;8.654;2022-07-26T11:59:19;4.18;;;1.40;;
5682;SDS011;2864;49.220;8.654;2022-07-26T12:01:45;3.80;;;1.63;;
5682;SDS011;2864;49.220;8.654;2022-07-26T12:04:18;2.85;;;1.35;;
5682;SDS011;2864;49.220;8.654;2022-07-26T12:06:49;3.80;;;1.70;;
5682;SDS011;2864;49.220;8.654;2022-07-26T12:11:54;2.50;;;1.65;;
5682;SDS011;2864;49.220;8.654;2022-07-26T12:14:24;2.15;;;1.35;;
5682;SDS011;2864;49.220;8.654;2022-07-26T12:16:54;2.10;;;1.40;;
5682;SDS011;2864;49.220;8.654;2022-07-26T12:21:50;2.28;;;1.30;;
5682;SDS011;2864;49.220;8.654;2022-07-26T12:24:37;3.27;;;1.20;;
5682;SDS011;2864;49.220;8.654;2022-07-26T12:29:48;3.27;;;1.20;;
5682;SDS011;2864;49.220;8.654;2022-07-26T12:32:17;2.73;;;1.50;;
5682;SDS011;2864;49.220;8.654;2022-07-26T12:34:54;2.28;;;1.33;;
5682;SDS011;2864;49.220;8.654;2022-07-26T12:37:25;4.20;;;1.50;;
5682;SDS011;2864;49.220;8.654;2022-07-26T12:40:13;2.80;;;1.40;;
5682;SDS011;2864;49.220;8.654;2022-07-26T12:42:44;2.43;;;1.60;;
5682;SDS011;2864;49.220;8.654;2022-07-26T12:45:29;1.83;;;1.50;;
5682;SDS011;2864;49.220;8.654;2022-07-26T12:47:56;1.52;;;1.30;;
5682;SDS011;2864;49.220;8.654;2022-07-26T12:50:24;4.00;;;1.30;;
5682;SDS011;2864;49.220;8.654;2022-07-26T12:52:54;2.67;;;1.40;;
5682;SDS011;2864;49.220;8.654;2022-07-26T12:55:24;2.40;;;1.20;;
5682;SDS011;2864;49.220;8.654;2022-07-26T12:57:50;3.38;;;1.70;;
5682;SDS011;2864;49.220;8.654;2022-07-26T13:00:16;2.38;;;1.00;;
5682;SDS011;2864;49.220;8.654;2022-07-26T13:02:42;3.78;;;1.30;;
5682;SDS011;2864;49.220;8.654;2022-07-26T13:05:09;2.47;;;1.40;;
5682;SDS011;2864;49.220;8.654;2022-07-26T13:07:35;2.75;;;1.40;;
5682;SDS011;2864;49.220;8.654;2022-07-26T13:10:02;2.40;;;1.17;;
5682;SDS011;2864;49.220;8.654;2022-07-26T13:12:29;2.35;;;1.27;;
5682;SDS011;2864;49.220;8.654;2022-07-26T13:14:55;5.15;;;1.70;;
5682;SDS011;2864;49.220;8.654;2022-07-26T13:17:21;3.00;;;1.20;;
5682;SDS011;2864;49.220;8.654;2022-07-26T13:19:46;2.78;;;1.30;;
5682;SDS011;2864;49.220;8.654;2022-07-26T13:22:12;3.10;;;1.40;;
5682;SDS011;2864;49.220;8.654;2022-07-26T13:24:38;2.63;;;1.20;;
5682;SDS011;2864;49.220;8.654;2022-07-26T13:27:04;2.20;;;1.30;;
5682;SDS011;2864;49.220;8.654;2022-07-26T13:29:32;2.55;;;1.20;;
5682;SDS011;2864;49.220;8.654;2022-07-26T13:31:58;2.60;;;1.38;;
5682;SDS011;2864;49.220;8.654;2022-07-26T13:34:24;2.33;;;1.20;;
5682;SDS011;2864;49.220;8.654;2022-07-26T13:36:51;3.33;;;1.40;;
5682;SDS011;2864;49.220;8.654;2022-07-26T13:39:17;3.30;;;1.40;;
5682;SDS011;2864;49.220;8.654;2022-07-26T13:41:43;2.67;;;1.30;;
5682;SDS011;2864;49.220;8.654;2022-07-26T13:44:09;1.52;;;1.13;;
5682;SDS011;2864;49.220;8.654;2022-07-26T13:46:35;2.85;;;1.23;;
5682;SDS011;2864;49.220;8.654;2022-07-26T13:49:02;3.15;;;1.40;;
5682;SDS011;2864;49.220;8.654;2022-07-26T13:51:30;4.57;;;1.35;;
5682;SDS011;2864;49.220;8.654;2022-07-26T13:54:16;2.63;;;1.30;;
5682;SDS011;2864;49.220;8.654;2022-07-26T13:56:43;2.15;;;1.17;;
5682;SDS011;2864;49.220;8.654;2022-07-26T13:59:09;2.25;;;1.50;;
5682;SDS011;2864;49.220;8.654;2022-07-26T14:01:36;2.70;;;1.33;;
5682;SDS011;2864;49.220;8.654;2022-07-26T14:04:05;2.97;;;1.50;;
5682;SDS011;2864;49.220;8.654;2022-07-26T14:06:32;4.60;;;1.40;;
5682;SDS011;2864;49.220;8.654;2022-07-26T14:08:58;2.17;;;1.25;;
5682;SDS011;2864;49.220;8.654;2022-07-26T14:11:25;2.38;;;1.30;;
5682;SDS011;2864;49.220;8.654;2022-07-26T14:13:51;4.25;;;1.60;;
5682;SDS011;2864;49.220;8.654;2022-07-26T14:16:17;2.65;;;1.20;;
5682;SDS011;2864;49.220;8.654;2022-07-26T14:18:43;1.80;;;1.38;;
5682;SDS011;2864;49.220;8.654;2022-07-26T14:21:09;3.40;;;1.40;;
5682;SDS011;2864;49.220;8.654;2022-07-26T14:23:35;2.35;;;1.50;;
5682;SDS011;2864;49.220;8.654;2022-07-26T14:26:02;6.13;;;1.30;;
5682;SDS011;2864;49.220;8.654;2022-07-26T14:28:27;1.50;;;1.23;;
5682;SDS011;2864;49.220;8.654;2022-07-26T14:30:53;3.97;;;1.58;;
5682;SDS011;2864;49.220;8.654;2022-07-26T14:33:20;2.22;;;1.30;;
5682;SDS011;2864;49.220;8.654;2022-07-26T14:35:46;4.15;;;1.50;;
5682;SDS011;2864;49.220;8.654;2022-07-26T14:38:12;2.67;;;1.50;;
5682;SDS011;2864;49.220;8.654;2022-07-26T14:40:39;2.50;;;1.55;;
5682;SDS011;2864;49.220;8.654;2022-07-26T14:43:05;3.97;;;1.60;;
5682;SDS011;2864;49.220;8.654;2022-07-26T14:45:31;3.70;;;1.38;;
5682;SDS011;2864;49.220;8.654;2022-07-26T14:47:57;2.75;;;1.75;;
5682;SDS011;2864;49.220;8.654;2022-07-26T14:50:22;1.83;;;1.33;;
5682;SDS011;2864;49.220;8.654;2022-07-26T14:52:51;2.60;;;1.50;;
5682;SDS011;2864;49.220;8.654;2022-07-26T14:55:18;4.32;;;1.70;;
5682;SDS011;2864;49.220;8.654;2022-07-26T14:57:44;2.13;;;1.48;;
5682;SDS011;2864;49.220;8.654;2022-07-26T15:00:11;3.08;;;1.50;;
5682;SDS011;2864;49.220;8.654;2022-07-26T15:02:40;2.58;;;1.60;;
5682;SDS011;2864;49.220;8.654;2022-07-26T15:05:07;2.33;;;1.40;;
5682;SDS011;2864;49.220;8.654;2022-07-26T15:07:34;5.95;;;1.55;;
5682;SDS011;2864;49.220;8.654;2022-07-26T15:10:00;1.55;;;1.30;;
5682;SDS011;2864;49.220;8.654;2022-07-26T15:12:26;1.83;;;1.58;;
5682;SDS011;2864;49.220;8.654;2022-07-26T15:14:52;1.52;;;1.20;;
5682;SDS011;2864;49.220;8.654;2022-07-26T15:17:18;2.53;;;1.80;;
5682;SDS011;2864;49.220;8.654;2022-07-26T15:19:45;3.50;;;1.45;;
5682;SDS011;2864;49.220;8.654;2022-07-26T15:22:10;2.90;;;1.30;;
5682;SDS011;2864;49.220;8.654;2022-07-26T15:24:36;3.30;;;1.58;;
5682;SDS011;2864;49.220;8.654;2022-07-26T15:27:03;1.92;;;1.60;;
5682;SDS011;2864;49.220;8.654;2022-07-26T15:29:28;2.58;;;1.50;;
5682;SDS011;2864;49.220;8.654;2022-07-26T15:31:54;2.72;;;1.40;;
5682;SDS011;2864;49.220;8.654;2022-07-26T15:34:20;3.80;;;1.60;;
5682;SDS011;2864;49.220;8.654;2022-07-26T15:36:46;2.83;;;1.40;;
5682;SDS011;2864;49.220;8.654;2022-07-26T15:39:12;2.75;;;1.42;;
5682;SDS011;2864;49.220;8.654;2022-07-26T15:41:38;3.83;;;1.42;;
5682;SDS011;2864;49.220;8.654;2022-07-26T15:44:04;5.22;;;1.60;;
5682;SDS011;2864;49.220;8.654;2022-07-26T15:46:30;1.90;;;1.42;;
5682;SDS011;2864;49.220;8.654;2022-07-26T15:48:56;5.38;;;1.63;;
5682;SDS011;2864;49.220;8.654;2022-07-26T15:51:22;2.13;;;1.30;;
5682;SDS011;2864;49.220;8.654;2022-07-26T15:53:48;1.60;;;1.50;;
5682;SDS011;2864;49.220;8.654;2022-07-26T15:56:15;2.53;;;1.40;;
5682;SDS011;2864;49.220;8.654;2022-07-26T15:58:41;3.10;;;1.50;;
5682;SDS011;2864;49.220;8.654;2022-07-26T16:01:07;2.38;;;1.70;;
5682;SDS011;2864;49.220;8.654;2022-07-26T16:03:33;3.10;;;1.50;;
5682;SDS011;2864;49.220;8.654;2022-07-26T16:05:59;3.30;;;1.50;;
5682;SDS011;2864;49.220;8.654;2022-07-26T16:08:25;2.40;;;1.35;;